sensor_id;sensor_type;location;lat;lon;timestamp;P1;durP1;ratioP1;P2;durP2;ratioP2
62808;SDS011;48848;39.002;-94.584;2022-09-06T17:51:36;5.50;;;2.83;;
62808;SDS011;48848;39.002;-94.584;2022-09-06T17:54:03;18.08;;;3.10;;
62808;SDS011;48848;39.002;-94.584;2022-09-06T17:56:34;5.65;;;2.25;;
62808;SDS011;48848;39.002;-94.584;2022-09-06T17:59:02;6.75;;;2.40;;
62808;SDS011;48848;39.002;-94.584;2022-09-06T18:01:30;4.22;;;2.45;;
62808;SDS011;48848;39.002;-94.584;2022-09-06T18:04:00;4.80;;;2.25;;
62808;SDS011;48848;39.002;-94.584;2022-09-06T18:06:28;5.45;;;2.47;;
62808;SDS011;48848;39.002;-94.584;2022-09-06T18:08:55;7.10;;;2.60;;
62808;SDS011;48848;39.002;-94.584;2022-09-06T18:11:27;4.15;;;2.50;;
62808;SDS011;48848;39.002;-94.584;2022-09-06T18:13:59;5.22;;;2.30;;
62808;SDS011;48848;39.002;-94.584;2022-09-06T18:16:28;4.35;;;2.50;;
62808;SDS011;48848;39.002;-94.584;2022-09-06T18:18:57;4.65;;;2.70;;
62808;SDS011;48848;39.002;-94.584;2022-09-06T18:21:25;4.65;;;2.40;;
62808;SDS011;48848;39.002;-94.584;2022-09-06T18:23:53;8.10;;;2.55;;
62808;SDS011;48848;39.002;-94.584;2022-09-06T18:26:20;6.55;;;2.63;;
62808;SDS011;48848;39.002;-94.584;2022-09-06T19:57:02;1.92;;;1.25;;
62808;SDS011;48848;39.002;-94.584;2022-09-06T19:59:30;2.67;;;1.60;;
62808;SDS011;48848;39.002;-94.584;2022-09-06T20:02:00;2.00;;;1.40;;
62808;SDS011;48848;39.002;-94.584;2022-09-06T20:04:27;2.10;;;1.33;;
62808;SDS011;48848;39.002;-94.584;2022-09-06T20:06:53;3.90;;;1.40;;
62808;SDS011;48848;39.002;-94.584;2022-09-06T20:09:19;2.17;;;1.33;;
62808;SDS011;48848;39.002;-94.584;2022-09-06T20:11:45;3.00;;;1.33;;
62808;SDS011;48848;39.002;-94.584;2022-09-06T20:14:12;8.68;;;1.50;;
62808;SDS011;48848;39.002;-94.584;2022-09-06T20:16:38;1.83;;;1.20;;
62808;SDS011;48848;39.002;-94.584;2022-09-06T20:19:05;2.50;;;1.27;;
62808;SDS011;48848;39.002;-94.584;2022-09-06T20:21:31;4.53;;;1.35;;
62808;SDS011;48848;39.002;-94.584;2022-09-06T20:23:57;2.92;;;1.27;;
62808;SDS011;48848;39.002;-94.584;2022-09-06T20:26:26;2.05;;;1.20;;
62808;SDS011;48848;39.002;-94.584;2022-09-06T20:28:57;2.20;;;1.20;;
62808;SDS011;48848;39.002;-94.584;2022-09-06T20:31:25;1.60;;;1.13;;
62808;SDS011;48848;39.002;-94.584;2022-09-06T20:33:53;2.28;;;1.27;;
62808;SDS011;48848;39.002;-94.584;2022-09-06T20:36:20;2.20;;;1.25;;
62808;SDS011;48848;39.002;-94.584;2022-09-06T20:38:46;1.77;;;1.10;;
62808;SDS011;48848;39.002;-94.584;2022-09-06T20:41:17;8.23;;;1.30;;
62808;SDS011;48848;39.002;-94.584;2022-09-06T20:46:21;1.63;;;1.00;;
62808;SDS011;48848;39.002;-94.584;2022-09-06T20:48:50;2.72;;;1.10;;
62808;SDS011;48848;39.002;-94.584;2022-09-06T20:51:17;1.85;;;1.10;;
62808;SDS011;48848;39.002;-94.584;2022-09-06T20:53:46;3.30;;;1.10;;
62808;SDS011;48848;39.002;-94.584;2022-09-06T20:56:16;1.60;;;1.10;;
62808;SDS011;48848;39.002;-94.584;2022-09-06T21:25:53;8.07;;;1.00;;
62808;SDS011;48848;39.002;-94.584;2022-09-06T21:28:20;4.18;;;1.10;;
62808;SDS011;48848;39.002;-94.584;2022-09-06T21:30:47;1.75;;;0.95;;
62808;SDS011;48848;39.002;-94.584;2022-09-06T22:29:50;7.65;;;1.20;;
62808;SDS011;48848;39.002;-94.584;2022-09-06T22:42:01;15.60;;;1.30;;
62808;SDS011;48848;39.002;-94.584;2022-09-06T22:44:27;8.13;;;1.20;;
62808;SDS011;48848;39.002;-94.584;2022-09-06T22:46:54;5.27;;;1.10;;
62808;SDS011;48848;39.002;-94.584;2022-09-06T22:49:21;16.20;;;1.10;;
62808;SDS011;48848;39.002;-94.584;2022-09-06T22:51:47;4.00;;;1.00;;
62808;SDS011;48848;39.002;-94.584;2022-09-06T22:54:14;5.13;;;1.00;;
62808;SDS011;48848;39.002;-94.584;2022-09-06T22:56:40;3.38;;;1.10;;
62808;SDS011;48848;39.002;-94.584;2022-09-06T22:59:06;8.30;;;1.23;;
62808;SDS011;48848;39.002;-94.584;2022-09-06T23:01:33;3.17;;;1.10;;
62808;SDS011;48848;39.002;-94.584;2022-09-06T23:06:33;1.33;;;0.90;;
62808;SDS011;48848;39.002;-94.584;2022-09-06T23:08:59;1.10;;;0.90;;
62808;SDS011;48848;39.002;-94.584;2022-09-06T23:11:26;2.50;;;1.00;;
62808;SDS011;48848;39.002;-94.584;2022-09-06T23:13:56;1.42;;;0.70;;
62808;SDS011;48848;39.002;-94.584;2022-09-06T23:16:23;1.20;;;0.90;;
62808;SDS011;48848;39.002;-94.584;2022-09-06T23:18:51;1.48;;;0.90;;
62808;SDS011;48848;39.002;-94.584;2022-09-06T23:21:19;1.00;;;0.90;;
62808;SDS011;48848;39.002;-94.584;2022-09-06T23:23:48;1.23;;;1.00;;
62808;SDS011;48848;39.002;-94.584;2022-09-06T23:26:19;1.75;;;0.95;;
62808;SDS011;48848;39.002;-94.584;2022-09-06T23:28:50;1.08;;;0.90;;
62808;SDS011;48848;39.002;-94.584;2022-09-06T23:31:21;1.40;;;1.00;;
62808;SDS011;48848;39.002;-94.584;2022-09-06T23:33:52;0.93;;;0.80;;
62808;SDS011;48848;39.002;-94.584;2022-09-06T23:36:22;1.60;;;1.00;;
62808;SDS011;48848;39.002;-94.584;2022-09-06T23:38:48;0.85;;;0.80;;
62808;SDS011;48848;39.002;-94.584;2022-09-06T23:41:14;0.77;;;0.70;;
62808;SDS011;48848;39.002;-94.584;2022-09-06T23:43:42;1.00;;;0.80;;
62808;SDS011;48848;39.002;-94.584;2022-09-06T23:46:09;4.75;;;1.02;;
62808;SDS011;48848;39.002;-94.584;2022-09-06T23:48:37;1.10;;;0.90;;
62808;SDS011;48848;39.002;-94.584;2022-09-06T23:51:03;1.35;;;1.00;;
62808;SDS011;48848;39.002;-94.584;2022-09-06T23:53:30;1.20;;;0.90;;
62808;SDS011;48848;39.002;-94.584;2022-09-06T23:55:56;0.80;;;0.70;;
62808;SDS011;48848;39.002;-94.584;2022-09-06T23:58:23;1.33;;;1.00;;
